Time;durP1;ratioP1;P1;durP2;ratioP2;P2;SDS_P1;SDS_P2;PMS_P1;PMS_P2;Temp;Humidity;BMP_temperature;BMP_pressure;BME280_temperature;BME280_humidity;BME280_pressure;Samples;Min_cycle;Max_cycle;Signal;HPM_P1;HPM_P2
2023/01/16 00:01:44;;;;;;;154.07;72.30;;;;;;;5.78;100.00;100237.03;5092040;28;20036;-29
2023/01/16 00:04:09;;;;;;;144.10;70.22;;;;;;;5.81;100.00;100233.19;5073806;28;20035;-29
2023/01/16 00:06:35;;;;;;;167.80;85.50;;;;;;;5.78;100.00;100236.19;5091586;28;20092;-30
2023/01/16 00:09:02;;;;;;;152.30;76.63;;;;;;;5.93;100.00;100239.66;5073630;28;20442;-28
2023/01/16 00:11:27;;;;;;;159.68;78.28;;;;;;;6.02;100.00;100227.16;5091813;28;20467;-33
2023/01/16 00:13:53;;;;;;;80.50;45.55;;;;;;;5.88;100.00;100212.91;5091832;28;20020;-32
2023/01/16 00:16:20;;;;;;;42.13;25.48;;;;;;;5.92;100.00;100211.53;5091840;28;20445;-29
2023/01/16 00:18:46;;;;;;;35.08;20.92;;;;;;;6.00;100.00;100223.88;5091429;28;20028;-34
2023/01/16 00:21:11;;;;;;;26.02;15.80;;;;;;;5.90;100.00;100225.97;5091533;28;20080;-30
2023/01/16 00:23:37;;;;;;;26.08;14.52;;;;;;;5.88;100.00;100220.84;5091418;28;20076;-33
2023/01/16 00:26:07;;;;;;;33.72;19.02;;;;;;;5.87;100.00;100221.84;5091693;28;20036;-28
2023/01/16 00:28:32;;;;;;;44.28;23.65;;;;;;;5.70;100.00;100226.53;5073395;28;20024;-28
2023/01/16 00:30:58;;;;;;;44.92;26.20;;;;;;;5.74;100.00;100219.03;5073402;28;20047;-29
2023/01/16 00:33:23;;;;;;;63.55;37.35;;;;;;;5.49;100.00;100200.78;5091215;28;20181;-27
2023/01/16 00:35:49;;;;;;;36.72;20.45;;;;;;;5.47;100.00;100192.22;5072743;28;20083;-28
2023/01/16 00:38:14;;;;;;;41.65;25.25;;;;;;;5.42;100.00;100190.13;5091496;28;20025;-29
2023/01/16 00:40:40;;;;;;;27.15;16.35;;;;;;;5.69;100.00;100202.91;5091184;28;20028;-28
2023/01/16 00:43:05;;;;;;;25.10;14.63;;;;;;;5.46;100.00;100174.72;5091389;28;20050;-32
2023/01/16 00:45:31;;;;;;;27.40;14.82;;;;;;;5.44;100.00;100182.00;5072881;28;20031;-29
2023/01/16 00:47:58;;;;;;;26.90;14.00;;;;;;;5.65;100.00;100205.09;5091104;28;20470;-30
2023/01/16 00:50:23;;;;;;;24.00;13.55;;;;;;;5.47;100.00;100197.50;5090866;28;20043;-28
2023/01/16 00:52:49;;;;;;;24.70;14.80;;;;;;;5.33;100.00;100200.97;5072915;28;20127;-28
2023/01/16 00:55:14;;;;;;;23.67;13.07;;;;;;;5.10;100.00;100185.97;5090671;28;20036;-29
2023/01/16 00:57:40;;;;;;;27.50;13.50;;;;;;;5.09;100.00;100200.22;5072615;28;20484;-30
2023/01/16 01:00:06;;;;;;;23.40;13.50;;;;;;;4.77;100.00;100180.19;5091076;28;20040;-28
2023/01/16 01:02:31;;;;;;;21.63;11.85;;;;;;;4.58;100.00;100192.06;5072468;28;20440;-28
2023/01/16 01:04:57;;;;;;;22.42;12.63;;;;;;;4.56;100.00;100191.41;5090776;28;20032;-29
2023/01/16 01:07:22;;;;;;;23.23;12.45;;;;;;;4.50;100.00;100187.66;5090590;28;20027;-29
2023/01/16 01:09:48;;;;;;;23.40;11.98;;;;;;;4.46;100.00;100183.72;5090726;28;20066;-28
2023/01/16 01:12:13;;;;;;;24.65;11.73;;;;;;;4.49;100.00;100179.91;5090595;28;20107;-29
2023/01/16 01:14:39;;;;;;;23.77;13.55;;;;;;;4.61;100.00;100166.09;5090882;28;20051;-29
2023/01/16 01:17:04;;;;;;;27.23;13.88;;;;;;;4.63;100.00;100158.00;5090622;28;20399;-30
2023/01/16 01:19:29;;;;;;;24.50;14.85;;;;;;;4.80;100.00;100174.53;5090098;28;20488;-30
2023/01/16 01:21:55;;;;;;;26.75;14.50;;;;;;;4.72;100.00;100162.22;5090495;28;20161;-28
2023/01/16 01:24:21;;;;;;;24.77;14.18;;;;;;;4.91;100.00;100174.09;5090298;28;20084;-28
2023/01/16 01:26:46;;;;;;;27.58;15.27;;;;;;;4.84;100.00;100159.97;5090378;28;20031;-29
2023/01/16 01:29:11;;;;;;;26.48;13.15;;;;;;;4.77;100.00;100146.66;5090332;28;20410;-28
2023/01/16 01:31:37;;;;;;;25.55;14.68;;;;;;;4.71;100.00;100160.56;5090203;28;20034;-28
2023/01/16 01:34:02;;;;;;;27.55;12.60;;;;;;;4.69;100.00;100162.56;5071377;28;20119;-28
2023/01/16 01:36:28;;;;;;;22.65;13.20;;;;;;;4.81;100.00;100147.13;5072056;28;20028;-29
2023/01/16 01:38:53;;;;;;;23.48;12.85;;;;;;;4.72;100.00;100156.09;5090210;28;20042;-28
2023/01/16 01:41:19;;;;;;;25.35;13.00;;;;;;;4.66;100.00;100149.72;5071475;28;20031;-29
2023/01/16 01:43:56;;;;;;;20.33;11.88;;;;;;;4.64;100.00;100149.09;5090211;28;20034;-28
2023/01/16 01:46:22;;;;;;;22.52;12.13;;;;;;;4.46;100.00;100151.22;5090022;28;20031;-29
2023/01/16 01:48:50;;;;;;;21.52;12.02;;;;;;;4.32;100.00;100124.56;5071457;28;20040;-28
2023/01/16 01:51:26;;;;;;;22.77;12.07;;;;;;;4.40;100.00;100135.06;5089635;28;20024;-28
2023/01/16 01:53:57;;;;;;;22.73;11.63;;;;;;;4.47;100.00;100121.16;5090180;28;20027;-30
2023/01/16 01:56:30;;;;;;;24.40;12.20;;;;;;;4.06;100.00;100124.09;5089966;28;20109;-28
2023/01/16 01:59:00;;;;;;;22.13;11.70;;;;;;;4.05;100.00;100091.63;5089925;28;20040;-28
2023/01/16 02:01:28;;;;;;;23.35;12.40;;;;;;;4.27;100.00;100126.09;5089326;28;20047;-28
2023/01/16 02:04:00;;;;;;;23.75;12.95;;;;;;;4.30;100.00;100125.75;5089807;28;20073;-29
2023/01/16 02:06:35;;;;;;;25.00;13.10;;;;;;;4.52;100.00;100132.03;5089265;28;20085;-32
2023/01/16 02:09:01;;;;;;;26.13;12.38;;;;;;;4.40;100.00;100137.72;5089774;28;20035;-30
2023/01/16 02:11:35;;;;;;;23.50;12.15;;;;;;;4.18;100.00;100117.41;5089217;28;20101;-29
2023/01/16 02:14:06;;;;;;;23.05;12.20;;;;;;;4.22;100.00;100134.53;5089450;28;20028;-30
2023/01/16 02:19:40;;;;;;;19.92;10.90;;;;;;;4.33;100.00;100134.16;5089502;28;20047;-29
2023/01/16 02:22:34;;;;;;;25.13;12.48;;;;;;;4.08;100.00;100132.66;5089180;28;20043;-30
2023/01/16 02:25:12;;;;;;;23.20;11.75;;;;;;;4.29;100.00;100126.72;5089283;28;20526;-29
2023/01/16 02:28:03;;;;;;;21.42;11.75;;;;;;;4.29;100.00;100100.34;5089521;28;20027;-29
2023/01/16 02:30:28;;;;;;;24.33;11.65;;;;;;;4.34;100.00;100125.22;5089230;28;20111;-29
2023/01/16 02:33:05;;;;;;;22.90;12.20;;;;;;;4.33;100.00;100139.44;5089270;28;20171;-30
2023/01/16 02:35:57;;;;;;;23.73;12.13;;;;;;;4.33;100.00;100128.03;5088853;28;20125;-29
2023/01/16 02:38:55;;;;;;;25.17;12.73;;;;;;;4.34;100.00;100138.41;5089232;28;20052;-30
2023/01/16 02:41:26;;;;;;;26.55;12.95;;;;;;;4.48;100.00;100136.84;5037486;28;20040;-28
2023/01/16 02:44:09;;;;;;;25.52;11.55;;;;;;;4.36;100.00;100136.41;5089337;28;20027;-28
2023/01/16 02:46:36;;;;;;;21.88;12.25;;;;;;;4.31;100.00;100116.81;5089208;28;20028;-28
2023/01/16 02:49:17;;;;;;;24.40;12.10;;;;;;;4.33;100.00;100126.22;5089102;28;20044;-28
2023/01/16 02:52:36;;;;;;;26.58;13.45;;;;;;;4.30;100.00;100129.19;5089275;28;20024;-28
2023/01/16 02:55:21;;;;;;;27.73;16.05;;;;;;;4.15;100.00;100123.06;4989983;28;20030;-29
2023/01/16 02:57:51;;;;;;;30.67;16.67;;;;;;;4.12;100.00;100113.66;5082655;28;20040;-30
2023/01/16 03:00:19;;;;;;;30.40;17.08;;;;;;;3.98;100.00;100133.72;5089070;28;20052;-30
2023/01/16 03:02:45;;;;;;;40.78;24.27;;;;;;;3.85;100.00;100114.97;5070796;28;20506;-30
2023/01/16 03:05:11;;;;;;;21.88;13.15;;;;;;;3.69;100.00;100112.44;5070549;28;20043;-27
2023/01/16 03:08:07;;;;;;;23.10;11.07;;;;;;;3.63;100.00;100141.13;5070534;28;20027;-31
2023/01/16 03:11:02;;;;;;;24.90;13.27;;;;;;;3.85;100.00;100130.81;5070930;28;20032;-28
2023/01/16 03:13:46;;;;;;;25.88;13.20;;;;;;;3.90;100.00;100136.38;5087961;28;20519;-29
2023/01/16 03:16:11;;;;;;;54.90;30.20;;;;;;;3.97;100.00;100126.78;5088637;28;20035;-29
2023/01/16 03:18:39;;;;;;;58.55;31.95;;;;;;;4.18;100.00;100126.16;5091809;28;20028;-29
2023/01/16 03:21:24;;;;;;;;;;;;;;;4.07;100.00;100121.28;5075046;28;20422;-28
2023/01/16 03:24:05;;;;;;;64.95;34.65;;;;;;;4.12;100.00;100108.38;5092667;28;19951;-29
2023/01/16 03:26:38;;;;;;;37.92;22.48;;;;;;;4.20;100.00;100102.22;5074372;28;20120;-30
2023/01/16 03:29:51;;;;;;;43.13;22.02;;;;;;;4.28;100.00;100102.16;5074515;28;20063;-29
2023/01/16 03:32:26;;;;;;;49.13;27.40;;;;;;;3.99;100.00;100095.75;5029526;28;20116;-28
2023/01/16 03:35:02;;;;;;;65.80;34.67;;;;;;;3.62;100.00;100070.94;5029039;28;20057;-27
2023/01/16 03:37:36;;;;;;;45.67;25.58;;;;;;;3.60;100.00;100096.66;5066041;28;20115;-29
2023/01/16 03:40:04;;;;;;;41.83;23.77;;;;;;;3.47;100.00;100064.72;5074162;28;20028;-28
2023/01/16 03:42:38;;;;;;;49.88;27.27;;;;;;;3.67;100.00;100082.78;5092526;28;20028;-28
2023/01/16 03:45:16;;;;;;;42.35;21.10;;;;;;;3.63;100.00;100083.09;5073915;28;20028;-30
2023/01/16 03:47:49;;;;;;;73.63;36.47;;;;;;;3.50;100.00;100072.31;5092050;28;20051;-30
2023/01/16 03:50:20;;;;;;;66.38;33.13;;;;;;;3.63;100.00;100071.75;5092334;28;20024;-27
2023/01/16 03:52:52;;;;;;;100.95;47.03;;;;;;;3.51;100.00;100058.13;5092012;28;20030;-28
2023/01/16 03:55:20;;;;;;;47.88;22.10;;;;;;;3.83;100.00;100077.41;5092197;28;20088;-29
2023/01/16 03:57:54;;;;;;;28.83;13.95;;;;;;;3.98;100.00;100073.03;5073598;28;20045;-28
2023/01/16 04:00:21;;;;;;;21.88;10.88;;;;;;;3.85;100.00;100070.13;5092188;28;20085;-28
2023/01/16 04:03:16;;;;;;;22.70;10.35;;;;;;;3.56;100.00;100090.09;5092195;28;20024;-28
2023/01/16 04:05:56;;;;;;;21.80;10.75;;;;;;;3.66;100.00;100083.75;5070239;28;20507;-28
2023/01/16 04:08:33;;;;;;;31.83;15.88;;;;;;;3.59;100.00;100068.63;5091777;28;20112;-29
2023/01/16 04:10:59;;;;;;;20.88;10.88;;;;;;;3.08;100.00;100057.66;5091780;28;20049;-31
2023/01/16 04:13:31;;;;;;;22.33;11.18;;;;;;;3.24;100.00;100066.50;5073270;28;20036;-29
2023/01/16 04:16:01;;;;;;;21.85;11.20;;;;;;;2.91;100.00;100045.53;5091512;28;20024;-29
2023/01/16 04:18:34;;;;;;;19.48;10.52;;;;;;;2.89;100.00;100058.88;5091615;28;20081;-29
2023/01/16 04:21:00;;;;;;;22.38;10.63;;;;;;;2.62;100.00;100036.41;5073270;28;20032;-30
2023/01/16 04:23:26;;;;;;;19.33;9.55;;;;;;;2.80;100.00;100059.91;5091367;28;20032;-29
2023/01/16 04:25:51;;;;;;;19.85;10.98;;;;;;;2.99;100.00;100063.97;5091462;28;20112;-33
2023/01/16 04:28:17;;;;;;;19.90;10.80;;;;;;;3.10;100.00;100050.41;5090996;28;20411;-28
2023/01/16 04:30:42;;;;;;;22.63;11.85;;;;;;;2.96;100.00;100032.66;5091327;28;20028;-28
2023/01/16 04:33:08;;;;;;;20.45;10.70;;;;;;;3.00;100.00;100060.31;5091218;28;20028;-27
2023/01/16 04:35:34;;;;;;;23.25;11.43;;;;;;;3.07;100.00;100040.22;5090715;28;20055;-30
2023/01/16 04:37:59;;;;;;;24.60;12.57;;;;;;;3.20;100.00;100051.03;5072985;28;20035;-28
2023/01/16 04:40:25;;;;;;;23.85;12.27;;;;;;;3.36;100.00;100054.59;5091362;28;20066;-28
2023/01/16 04:42:51;;;;;;;24.27;12.43;;;;;;;3.46;100.00;100057.03;5091012;28;20024;-27
2023/01/16 04:45:16;;;;;;;26.23;14.57;;;;;;;3.31;100.00;100052.47;5091173;28;20036;-28
2023/01/16 04:47:49;;;;;;;31.73;14.45;;;;;;;3.27;100.00;100034.53;5090911;28;20069;-28
2023/01/16 04:50:15;;;;;;;30.00;14.82;;;;;;;3.37;100.00;100045.66;5072636;28;20113;-27
2023/01/16 04:52:41;;;;;;;34.83;14.48;;;;;;;3.35;100.00;100047.66;5090934;28;20052;-30
2023/01/16 04:55:07;;;;;;;27.83;13.95;;;;;;;3.25;100.00;100037.34;5090856;28;20054;-31
2023/01/16 04:57:32;;;;;;;32.40;16.88;;;;;;;3.33;100.00;100029.41;5090657;28;20036;-29
2023/01/16 04:59:58;;;;;;;24.27;12.52;;;;;;;3.67;100.00;100048.50;5090944;28;20045;-27
2023/01/16 05:02:23;;;;;;;27.65;15.85;;;;;;;3.58;100.00;100027.44;5090608;28;20024;-27
2023/01/16 05:04:49;;;;;;;45.58;22.08;;;;;;;3.66;100.00;100044.19;5072025;28;20032;-28
2023/01/16 05:07:14;;;;;;;43.28;23.85;;;;;;;3.57;100.00;100024.97;5090982;28;20024;-31
2023/01/16 05:09:39;;;;;;;34.67;18.75;;;;;;;3.68;100.00;100031.66;5090652;28;20028;-31
2023/01/16 05:12:05;;;;;;;31.27;15.43;;;;;;;3.70;100.00;100024.38;5090580;28;20032;-30
2023/01/16 05:14:31;;;;;;;33.22;18.58;;;;;;;3.66;100.00;100009.91;5072399;28;20059;-30
2023/01/16 05:16:56;;;;;;;32.10;15.82;;;;;;;3.88;100.00;100026.75;5071968;28;20027;-28
2023/01/16 05:19:21;;;;;;;31.20;15.38;;;;;;;3.73;100.00;100016.13;5090358;28;20032;-29
2023/01/16 05:21:47;;;;;;;45.65;17.83;;;;;;;3.96;100.00;100030.16;5090417;28;20406;-29
2023/01/16 05:24:12;;;;;;;55.60;21.67;;;;;;;3.89;100.00;100021.31;5090464;28;20036;-29
2023/01/16 05:26:38;;;;;;;62.03;26.08;;;;;;;3.89;100.00;100026.56;5090367;28;20032;-28
2023/01/16 05:29:03;;;;;;;85.88;25.08;;;;;;;3.75;100.00;99995.69;5055439;28;20028;-29
2023/01/16 05:31:29;;;;;;;66.00;22.35;;;;;;;4.12;100.00;100036.31;5071641;28;20067;-29
2023/01/16 05:33:54;;;;;;;60.38;20.00;;;;;;;4.05;100.00;100038.03;5089727;28;20028;-29
2023/01/16 05:36:19;;;;;;;63.47;21.08;;;;;;;3.93;100.00;100035.78;5090209;28;20066;-29
2023/01/16 05:38:46;;;;;;;56.78;18.90;;;;;;;3.93;100.00;100014.69;5090151;28;20063;-28
2023/01/16 05:41:12;;;;;;;56.30;20.88;;;;;;;4.21;100.00;100043.16;5089285;28;20742;-30
2023/01/16 05:43:37;;;;;;;65.75;19.90;;;;;;;3.76;100.00;100003.44;5090134;28;20103;-29
2023/01/16 05:46:03;;;;;;;76.40;21.60;;;;;;;3.90;100.00;100033.47;5089831;28;20111;-28
2023/01/16 05:48:31;;;;;;;82.80;21.92;;;;;;;4.12;100.00;100039.75;5089585;28;20058;-29
2023/01/16 05:50:56;;;;;;;83.55;21.73;;;;;;;3.98;100.00;100016.78;5071765;28;20480;-28
2023/01/16 05:53:22;;;;;;;74.00;22.77;;;;;;;4.08;100.00;100032.38;5071284;28;20042;-30
2023/01/16 05:55:47;;;;;;;77.95;23.58;;;;;;;3.92;100.00;100034.13;5071551;28;20039;-28
2023/01/16 05:58:15;;;;;;;89.03;29.08;;;;;;;3.95;100.00;100030.34;5089983;28;20760;-28
2023/01/16 06:00:40;;;;;;;120.65;31.88;;;;;;;4.14;100.00;100036.94;5071350;28;20085;-28
2023/01/16 06:03:07;;;;;;;83.50;23.40;;;;;;;4.17;100.00;100032.13;5071325;28;20032;-28
2023/01/16 06:05:33;;;;;;;84.80;23.75;;;;;;;4.07;100.00;100017.56;5089197;28;20114;-28
2023/01/16 06:07:58;;;;;;;73.93;25.42;;;;;;;4.19;100.00;100018.75;5071407;28;20777;-28
2023/01/16 06:10:25;;;;;;;104.55;30.67;;;;;;;4.22;100.00;100044.78;5089480;28;20137;-29
2023/01/16 06:12:51;;;;;;;127.18;35.42;;;;;;;4.23;100.00;100046.44;5089458;28;20111;-30
2023/01/16 06:15:16;;;;;;;137.68;26.92;;;;;;;4.21;100.00;100037.88;5070710;28;20827;-28
2023/01/16 06:17:42;;;;;;;127.15;29.48;;;;;;;4.21;100.00;100043.97;5089382;28;20020;-29
2023/01/16 06:20:08;;;;;;;85.05;19.98;;;;;;;4.01;100.00;100038.34;5089584;28;20028;-31
2023/01/16 06:22:34;;;;;;;95.20;19.48;;;;;;;4.07;100.00;100044.75;5089360;28;20020;-28
2023/01/16 06:24:59;;;;;;;60.30;18.00;;;;;;;4.11;100.00;100037.31;5089386;28;20106;-30
2023/01/16 06:27:25;;;;;;;91.25;19.10;;;;;;;4.10;100.00;100046.22;5089452;28;20062;-29
2023/01/16 06:29:50;;;;;;;78.13;19.60;;;;;;;4.07;100.00;100012.28;5089277;28;20449;-28
2023/01/16 06:32:16;;;;;;;88.32;20.13;;;;;;;4.01;100.00;100004.06;5089006;28;20059;-30
2023/01/16 06:34:42;;;;;;;70.30;18.63;;;;;;;3.89;100.00;100018.66;5088855;28;20059;-29
2023/01/16 06:37:08;;;;;;;129.15;42.05;;;;;;;4.01;100.00;100011.97;5089108;28;20020;-30
2023/01/16 06:39:33;;;;;;;149.55;52.05;;;;;;;4.15;100.00;100012.19;5089077;28;20036;-33
2023/01/16 06:41:59;;;;;;;96.15;27.58;;;;;;;4.15;100.00;100001.66;5089151;28;20028;-30
2023/01/16 06:44:24;;;;;;;47.50;18.15;;;;;;;4.10;100.00;100009.25;5089030;28;20032;-28
2023/01/16 06:46:50;;;;;;;48.00;17.38;;;;;;;3.89;100.00;100005.47;5070766;28;20067;-27
2023/01/16 06:49:15;;;;;;;63.35;17.67;;;;;;;4.00;100.00;100004.22;5088915;28;20036;-29
2023/01/16 06:51:42;;;;;;;120.07;37.33;;;;;;;3.96;100.00;100014.34;5090542;28;20110;-32
2023/01/16 06:54:09;;;;;;;130.32;42.10;;;;;;;4.05;100.00;100006.34;5075110;28;20031;-27
2023/01/16 06:56:34;;;;;;;60.35;19.48;;;;;;;4.08;100.00;100005.97;5092685;28;20503;-28
2023/01/16 06:59:00;;;;;;;69.68;19.17;;;;;;;3.98;100.00;99991.22;5074472;28;20028;-28
2023/01/16 07:01:25;;;;;;;50.70;15.77;;;;;;;4.00;100.00;99997.16;5074044;28;20043;-29
2023/01/16 07:03:51;;;;;;;54.25;15.60;;;;;;;4.17;100.00;100018.13;5092872;28;20016;-30
2023/01/16 07:06:16;;;;;;;47.78;15.52;;;;;;;4.16;100.00;100011.19;5074342;28;20082;-28
2023/01/16 07:08:42;;;;;;;59.95;16.80;;;;;;;4.21;100.00;100012.31;5092737;28;20457;-29
2023/01/16 07:11:08;;;;;;;45.47;15.77;;;;;;;4.27;100.00;100008.13;5074383;28;20066;-29
2023/01/16 07:13:33;;;;;;;41.88;16.40;;;;;;;4.32;100.00;99982.00;5068583;28;20046;-28
2023/01/16 07:24:22;;;;;;;71.20;18.60;;;;;;;4.52;100.00;99990.22;5090106;28;20043;-30
2023/01/16 07:26:53;;;;;;;71.05;24.75;;;;;;;4.51;100.00;99990.41;5061346;28;20051;-31
2023/01/16 07:29:18;;;;;;;60.60;21.33;;;;;;;4.43;100.00;99973.66;5054083;28;20078;-28
2023/01/16 07:31:44;;;;;;;63.13;26.30;;;;;;;4.68;100.00;99988.41;5072429;28;20495;-28
2023/01/16 07:34:09;;;;;;;71.32;21.73;;;;;;;4.66;100.00;99982.47;5037229;28;20024;-28
2023/01/16 07:36:35;;;;;;;131.10;42.05;;;;;;;4.58;100.00;99978.13;5071937;28;20111;-30
2023/01/16 07:39:00;;;;;;;75.00;28.83;;;;;;;4.53;100.00;99972.56;5072423;28;20511;-29
2023/01/16 07:41:26;;;;;;;61.17;20.52;;;;;;;4.68;100.00;99975.19;5072276;28;20035;-28
2023/01/16 07:43:51;;;;;;;92.70;36.42;;;;;;;4.68;100.00;99959.34;5071969;28;20489;-28
2023/01/16 07:46:16;;;;;;;155.18;67.75;;;;;;;4.43;100.00;99967.53;5053922;28;20021;-29
2023/01/16 07:48:42;;;;;;;143.80;66.07;;;;;;;4.41;100.00;99958.97;5077388;28;20031;-27
2023/01/16 07:51:07;;;;;;;105.95;45.97;;;;;;;4.22;100.00;99953.22;5092016;28;20027;-29
2023/01/16 07:53:33;;;;;;;74.05;36.03;;;;;;;4.11;100.00;99923.81;5091994;28;20028;-28
2023/01/16 07:56:00;;;;;;;67.78;30.88;;;;;;;4.07;100.00;99938.38;5092149;28;20027;-29
2023/01/16 07:58:26;;;;;;;54.13;24.98;;;;;;;3.84;100.00;99928.66;5092177;28;20157;-28
2023/01/16 08:00:53;;;;;;;57.28;19.20;;;;;;;3.87;100.00;99927.50;5073620;28;20089;-27
2023/01/16 08:03:19;;;;;;;50.38;15.52;;;;;;;4.11;100.00;99926.47;5072709;28;20032;-28
2023/01/16 08:05:45;;;;;;;53.78;16.00;;;;;;;4.05;100.00;99906.06;5091945;28;20030;-31
2023/01/16 08:08:11;;;;;;;71.80;23.77;;;;;;;4.33;100.00;99920.28;5091462;28;20047;-30
2023/01/16 08:10:38;;;;;;;62.90;18.13;;;;;;;4.17;100.00;99900.16;5091888;28;20099;-31
2023/01/16 08:13:03;;;;;;;67.43;26.73;;;;;;;4.16;100.00;99924.09;5091361;28;20024;-29
2023/01/16 08:15:29;;;;;;;66.25;24.25;;;;;;;4.31;100.00;99932.84;5091543;28;20399;-30
2023/01/16 08:17:55;;;;;;;60.80;28.70;;;;;;;4.02;100.00;99892.25;5091724;28;20028;-30
2023/01/16 08:20:21;;;;;;;71.25;42.88;;;;;;;4.11;100.00;99905.34;5073135;28;20032;-33
2023/01/16 08:22:49;;;;;;;67.28;41.15;;;;;;;4.38;100.00;99917.91;5091742;28;20067;-29
2023/01/16 08:25:16;;;;;;;62.25;23.48;;;;;;;4.40;100.00;99905.34;5091251;28;20028;-29
2023/01/16 08:27:43;;;;;;;34.03;13.98;;;;;;;4.10;100.00;99901.06;5091500;28;20027;-29
2023/01/16 08:30:09;;;;;;;40.90;13.45;;;;;;;4.06;100.00;99915.63;5072872;28;20725;-28
2023/01/16 08:32:35;;;;;;;54.22;15.48;;;;;;;4.16;100.00;99918.81;5072972;28;20392;-29
2023/01/16 08:35:03;;;;;;;36.80;14.40;;;;;;;4.40;100.00;99925.66;5090641;28;20055;-31
2023/01/16 08:37:29;;;;;;;39.15;13.70;;;;;;;4.32;100.00;99920.47;5091252;28;20088;-28
2023/01/16 08:39:55;;;;;;;43.33;13.50;;;;;;;4.34;100.00;99935.13;5073081;28;20062;-28
2023/01/16 08:53:19;;;;;;;27.63;12.13;;;;;;;4.47;100.00;99913.34;5090874;28;20107;-29
2023/01/16 08:55:44;;;;;;;39.33;14.45;;;;;;;4.58;100.00;99936.69;5072166;28;20339;-32
2023/01/16 08:58:10;;;;;;;46.13;18.95;;;;;;;4.58;100.00;99927.94;5090174;28;20020;-29
2023/01/16 09:00:36;;;;;;;50.60;23.73;;;;;;;4.95;100.00;99924.34;5072205;28;20020;-29
2023/01/16 09:03:01;;;;;;;116.90;46.05;;;;;;;4.75;100.00;99913.50;5090466;28;20028;-29
2023/01/16 09:05:28;;;;;;;43.20;17.00;;;;;;;5.21;100.00;99933.53;5090025;28;20059;-28
2023/01/16 09:07:54;;;;;;;52.00;20.55;;;;;;;5.22;100.00;99928.06;5090271;28;20023;-30
2023/01/16 09:10:20;;;;;;;45.20;17.65;;;;;;;5.13;100.00;99905.41;5071439;28;20043;-36
2023/01/16 09:15:29;;;;;;;41.75;19.75;;;;;;;5.27;100.00;99901.09;5086569;28;20031;-30
2023/01/16 09:17:55;;;;;;;42.65;16.95;;;;;;;5.31;100.00;99907.66;5089966;28;20016;-28
2023/01/16 09:20:21;;;;;;;38.70;20.05;;;;;;;4.78;100.00;99897.31;5089822;28;20032;-31
2023/01/16 09:22:46;;;;;;;59.90;18.77;;;;;;;4.80;100.00;99900.59;5089664;28;20483;-30
2023/01/16 09:25:12;;;;;;;60.47;19.17;;;;;;;5.33;100.00;99887.13;5089859;28;20031;-28
2023/01/16 09:27:37;;;;;;;42.28;16.52;;;;;;;5.24;100.00;99859.16;5065999;28;20055;-29
2023/01/16 09:30:04;;;;;;;39.28;16.08;;;;;;;5.35;100.00;99855.19;5089706;28;20525;-28
2023/01/16 09:32:29;;;;;;;64.90;34.17;;;;;;;5.23;100.00;99839.84;5089653;28;20802;-29
2023/01/16 09:34:55;;;;;;;78.95;44.35;;;;;;;5.23;100.00;99839.84;5071112;28;20044;-28
2023/01/16 09:37:21;;;;;;;48.45;23.08;;;;;;;5.06;100.00;99819.94;5088121;28;20059;-29
2023/01/16 09:39:47;;;;;;;41.03;17.50;;;;;;;5.27;100.00;99844.72;5089082;28;20059;-33
2023/01/16 09:45:22;;;;;;;37.60;17.17;;;;;;;5.24;100.00;99835.38;5069329;28;20043;-30
2023/01/16 09:47:52;;;;;;;48.40;30.98;;;;;;;5.07;100.00;99841.91;5069126;28;20032;-29
2023/01/16 09:50:33;;;;;;;39.92;19.42;;;;;;;5.13;100.00;99843.78;5086934;28;20085;-31
2023/01/16 09:58:35;;;;;;;41.45;20.65;;;;;;;5.27;100.00;99824.44;5087068;28;20054;-30
2023/01/16 10:01:07;;;;;;;34.83;15.85;;;;;;;5.45;100.00;99821.28;5070494;28;20471;-31
2023/01/16 10:03:33;;;;;;;37.15;16.65;;;;;;;5.61;100.00;99826.31;5089137;28;20063;-29
2023/01/16 10:06:25;;;;;;;41.42;23.15;;;;;;;5.68;100.00;99828.19;5088824;28;20170;-30
2023/01/16 10:08:53;;;;;;;32.85;14.40;;;;;;;5.37;100.00;99832.84;5084927;28;20047;-28
2023/01/16 10:11:47;;;;;;;30.77;14.15;;;;;;;5.33;100.00;99828.09;5089058;28;20024;-30
2023/01/16 10:14:12;;;;;;;32.00;14.80;;;;;;;5.23;100.00;99794.91;5089152;28;20035;-30
2023/01/16 10:17:27;;;;;;;34.08;16.13;;;;;;;5.28;100.00;99804.88;5089126;28;20377;-30
2023/01/16 10:20:30;;;;;;;42.05;18.67;;;;;;;5.19;100.00;99793.63;5081924;28;20040;-30
2023/01/16 10:23:11;;;;;;;63.17;26.13;;;;;;;5.11;100.00;99792.94;5088885;28;20500;-34
2023/01/16 10:25:49;;;;;;;132.05;57.47;;;;;;;5.11;100.00;99790.28;5088531;28;20188;-30
2023/01/16 10:28:27;;;;;;;;;;;;;;;4.97;100.00;99799.94;5089365;28;20020;-32
2023/01/16 10:31:11;;;;;;;82.05;36.80;;;;;;;4.78;100.00;99790.78;5089018;28;20029;-29
2023/01/16 10:34:00;;;;;;;63.35;24.60;;;;;;;4.82;100.00;99766.47;5088518;28;20503;-31
2023/01/16 10:36:35;;;;;;;83.45;34.45;;;;;;;4.96;100.00;99780.59;5088887;28;20526;-29
2023/01/16 10:39:03;;;;;;;28.77;12.50;;;;;;;4.95;100.00;99780.81;5070777;28;20048;-28
2023/01/16 10:50:23;;;;;;;30.73;15.00;;;;;;;5.00;100.00;99752.78;5088783;28;20127;-30
2023/01/16 10:52:48;;;;;;;29.58;13.88;;;;;;;5.30;100.00;99765.03;5070666;28;20086;-32
2023/01/16 10:55:15;;;;;;;30.00;13.75;;;;;;;5.34;100.00;99768.94;5088271;28;20537;-30
2023/01/16 10:58:04;;;;;;;29.80;13.43;;;;;;;5.33;100.00;99767.28;5070162;28;20020;-30
2023/01/16 11:00:35;;;;;;;28.80;13.52;;;;;;;5.17;100.00;99753.34;5088836;28;20028;-28
2023/01/16 11:03:14;;;;;;;31.83;14.02;;;;;;;4.98;100.00;99756.63;5088264;28;20032;-30
2023/01/16 11:05:40;;;;;;;41.00;20.23;;;;;;;5.07;100.00;99742.28;5088532;28;20549;-33
2023/01/16 11:08:16;;;;;;;30.40;14.23;;;;;;;5.05;100.00;99731.09;5070445;28;20024;-29
2023/01/16 11:10:45;;;;;;;29.50;13.15;;;;;;;5.37;100.00;99736.81;5088602;28;20032;-33
2023/01/16 11:18:48;;;;;;;28.40;14.65;;;;;;;5.33;100.00;99714.41;5088570;28;20047;-31
2023/01/16 11:21:24;;;;;;;33.22;15.35;;;;;;;5.34;100.00;99734.56;5069990;28;20032;-35
2023/01/16 11:23:57;;;;;;;27.83;13.63;;;;;;;5.19;100.00;99697.63;5088020;28;20016;-31
2023/01/16 11:26:23;;;;;;;28.63;14.30;;;;;;;5.31;100.00;99725.19;5088315;28;20114;-36
2023/01/16 11:28:49;;;;;;;27.77;13.50;;;;;;;5.63;100.00;99721.09;5064306;28;20023;-30
2023/01/16 11:31:21;;;;;;;31.17;14.85;;;;;;;5.61;100.00;99715.19;5087554;28;20020;-30
2023/01/16 11:34:01;;;;;;;32.50;15.20;;;;;;;5.53;100.00;99707.41;5087792;28;20020;-35
2023/01/16 11:36:30;;;;;;;33.67;17.48;;;;;;;5.60;100.00;99710.13;5067872;28;20051;-30
2023/01/16 11:38:56;;;;;;;37.10;18.42;;;;;;;5.49;100.00;99674.44;5089435;28;20036;-29
2023/01/16 11:41:31;;;;;;;28.85;14.52;;;;;;;5.47;100.00;99676.47;5091359;28;20023;-30
2023/01/16 11:47:22;;;;;;;29.75;14.35;;;;;;;5.49;100.00;99682.38;5007616;28;20584;-30
2023/01/16 11:49:50;;;;;;;30.02;14.10;;;;;;;5.64;100.00;99664.56;5085887;28;20093;-30
2023/01/16 11:52:26;;;;;;;28.15;13.48;;;;;;;5.64;100.00;99664.56;5091347;28;20027;-35
2023/01/16 11:54:55;;;;;;;29.23;14.93;;;;;;;6.04;100.00;99663.91;5089127;28;20054;-32
2023/01/16 11:57:32;;;;;;;32.47;15.20;;;;;;;6.02;100.00;99672.06;5072947;28;20032;-30
2023/01/16 12:00:41;;;;;;;34.75;18.30;;;;;;;5.88;100.00;99665.06;5089939;28;20032;-29
2023/01/16 12:03:24;;;;;;;31.70;15.75;;;;;;;6.06;100.00;99671.66;5091028;28;20020;-31
2023/01/16 12:06:01;;;;;;;29.45;16.48;;;;;;;6.25;100.00;99649.72;5065054;28;20038;-28
2023/01/16 12:08:30;;;;;;;36.33;17.33;;;;;;;6.30;100.00;99662.38;5072979;28;20028;-29
2023/01/16 12:10:58;;;;;;;30.55;15.65;;;;;;;6.09;100.00;99650.06;5064488;28;20024;-32
2023/01/16 12:16:42;;;;;;;25.75;13.70;;;;;;;5.76;100.00;99646.28;5077033;28;20533;-31
2023/01/16 12:19:16;;;;;;;78.85;36.70;;;;;;;5.84;100.00;99608.25;5064334;28;20034;-30